sensor_id;sensor_type;location;lat;lon;timestamp;pressure;altitude;pressure_sealevel;temperature;humidity
11212;BME280;5663;50.864;12.096;2023-02-16T01:53:10;100274.88;;;2.11;70.18
11212;BME280;5663;50.864;12.096;2023-02-16T01:55:43;100256.13;;;1.92;70.22
11212;BME280;5663;50.864;12.096;2023-02-16T01:58:17;100280.88;;;2.07;70.11
11212;BME280;5663;50.864;12.096;2023-02-16T02:01:32;100280.06;;;2.04;69.90
11212;BME280;5663;50.864;12.096;2023-02-16T02:04:20;100280.06;;;2.01;70.22
11212;BME280;5663;50.864;12.096;2023-02-16T02:07:10;100278.34;;;2.00;70.13
11212;BME280;5663;50.864;12.096;2023-02-16T02:09:51;100237.34;;;1.78;70.58
11212;BME280;5663;50.864;12.096;2023-02-16T02:12:38;100272.38;;;1.97;70.20
11212;BME280;5663;50.864;12.096;2023-02-16T02:15:12;100264.66;;;1.94;70.23
11212;BME280;5663;50.864;12.096;2023-02-16T02:17:44;100262.13;;;1.93;70.48
11212;BME280;5663;50.864;12.096;2023-02-16T02:20:26;100268.94;;;1.94;70.31
11212;BME280;5663;50.864;12.096;2023-02-16T02:23:42;100266.41;;;1.92;70.33
11212;BME280;5663;50.864;12.096;2023-02-16T02:27:08;100267.25;;;1.90;70.19
11212;BME280;5663;50.864;12.096;2023-02-16T02:30:21;100276.66;;;1.86;70.17
11212;BME280;5663;50.864;12.096;2023-02-16T02:33:27;100234.78;;;1.63;70.36
11212;BME280;5663;50.864;12.096;2023-02-16T02:36:10;100264.69;;;1.82;70.48
11212;BME280;5663;50.864;12.096;2023-02-16T02:38:50;100258.69;;;1.83;70.40
11212;BME280;5663;50.864;12.096;2023-02-16T02:41:37;100258.72;;;1.80;70.52
11212;BME280;5663;50.864;12.096;2023-02-16T02:44:48;100264.69;;;1.79;70.72
11212;BME280;5663;50.864;12.096;2023-02-16T02:47:42;100259.56;;;1.82;71.00
11212;BME280;5663;50.864;12.096;2023-02-16T02:50:50;100268.97;;;1.82;70.87
11212;BME280;5663;50.864;12.096;2023-02-16T02:53:40;100261.28;;;1.80;70.80
11212;BME280;5663;50.864;12.096;2023-02-16T02:56:12;100268.94;;;1.83;70.98
11212;BME280;5663;50.864;12.096;2023-02-16T02:59:03;100266.38;;;1.86;71.10
11212;BME280;5663;50.864;12.096;2023-02-16T03:01:57;100273.22;;;1.87;71.45
11212;BME280;5663;50.864;12.096;2023-02-16T03:04:32;100276.66;;;1.89;71.54
11212;BME280;5663;50.864;12.096;2023-02-16T03:07:00;100268.09;;;1.90;71.52
11212;BME280;5663;50.864;12.096;2023-02-16T03:09:29;100268.09;;;1.93;71.60
11212;BME280;5663;50.864;12.096;2023-02-16T03:11:58;100269.78;;;1.94;71.66
11212;BME280;5663;50.864;12.096;2023-02-16T03:14:48;100273.22;;;1.96;71.66
11212;BME280;5663;50.864;12.096;2023-02-16T03:17:21;100267.22;;;1.99;71.60
11212;BME280;5663;50.864;12.096;2023-02-16T03:20:11;100232.22;;;1.84;71.45
11212;BME280;5663;50.864;12.096;2023-02-16T03:23:00;100262.09;;;2.01;71.61
11212;BME280;5663;50.864;12.096;2023-02-16T03:25:47;100265.53;;;2.00;71.69
11212;BME280;5663;50.864;12.096;2023-02-16T03:28:37;100267.22;;;2.02;71.99
11212;BME280;5663;50.864;12.096;2023-02-16T03:31:29;100257.81;;;2.03;71.82
11212;BME280;5663;50.864;12.096;2023-02-16T03:34:00;100257.81;;;2.06;71.92
11212;BME280;5663;50.864;12.096;2023-02-16T03:36:30;100253.53;;;2.08;71.77
11212;BME280;5663;50.864;12.096;2023-02-16T03:38:59;100255.25;;;2.09;71.95
11212;BME280;5663;50.864;12.096;2023-02-16T03:41:31;100225.34;;;1.89;72.07
11212;BME280;5663;50.864;12.096;2023-02-16T03:44:00;100256.94;;;2.11;72.02
11212;BME280;5663;50.864;12.096;2023-02-16T03:46:28;100258.66;;;2.11;71.96
11212;BME280;5663;50.864;12.096;2023-02-16T03:48:56;100255.22;;;2.10;72.05
11212;BME280;5663;50.864;12.096;2023-02-16T03:51:26;100247.53;;;2.09;72.02
11212;BME280;5663;50.864;12.096;2023-02-16T03:53:54;100259.50;;;2.13;72.38
11212;BME280;5663;50.864;12.096;2023-02-16T03:56:23;100265.50;;;2.12;72.31
11212;BME280;5663;50.864;12.096;2023-02-16T03:58:50;100270.63;;;2.12;72.13
11212;BME280;5663;50.864;12.096;2023-02-16T04:01:18;100263.78;;;2.12;72.30
11212;BME280;5663;50.864;12.096;2023-02-16T04:03:46;100259.50;;;2.13;72.35
11212;BME280;5663;50.864;12.096;2023-02-16T04:06:14;100261.22;;;2.14;72.22
11212;BME280;5663;50.864;12.096;2023-02-16T04:08:43;100256.06;;;2.11;72.51
11212;BME280;5663;50.864;12.096;2023-02-16T04:11:11;100266.34;;;2.14;72.28
11212;BME280;5663;50.864;12.096;2023-02-16T04:13:56;100269.78;;;2.16;72.03
11212;BME280;5663;50.864;12.096;2023-02-16T04:16:24;100269.78;;;2.16;72.15
11212;BME280;5663;50.864;12.096;2023-02-16T04:18:52;100270.59;;;2.18;72.56
11212;BME280;5663;50.864;12.096;2023-02-16T04:21:20;100266.31;;;2.18;72.34
11212;BME280;5663;50.864;12.096;2023-02-16T04:23:49;100271.47;;;2.17;72.43
11212;BME280;5663;50.864;12.096;2023-02-16T04:26:17;100270.63;;;2.16;72.33
11212;BME280;5663;50.864;12.096;2023-02-16T04:28:46;100272.34;;;2.16;72.53
11212;BME280;5663;50.864;12.096;2023-02-16T04:31:15;100266.38;;;2.05;72.25
11212;BME280;5663;50.864;12.096;2023-02-16T04:33:42;100275.75;;;2.15;72.29
11212;BME280;5663;50.864;12.096;2023-02-16T04:36:10;100280.88;;;2.13;72.74
11212;BME280;5663;50.864;12.096;2023-02-16T04:38:38;100264.63;;;2.10;72.43
11212;BME280;5663;50.864;12.096;2023-02-16T04:41:07;100273.19;;;2.09;72.48
11212;BME280;5663;50.864;12.096;2023-02-16T04:43:35;100273.19;;;2.06;72.66
11212;BME280;5663;50.864;12.096;2023-02-16T04:46:04;100282.59;;;2.07;72.54
11212;BME280;5663;50.864;12.096;2023-02-16T04:48:32;100271.50;;;2.05;72.48
11212;BME280;5663;50.864;12.096;2023-02-16T04:51:02;100262.94;;;2.03;72.43
11212;BME280;5663;50.864;12.096;2023-02-16T08:54:59;100246.56;;;3.80;72.06
11212;BME280;5663;50.864;12.096;2023-02-16T08:57:27;100241.41;;;3.83;72.04
11212;BME280;5663;50.864;12.096;2023-02-16T08:59:56;100252.38;;;4.01;72.08
11212;BME280;5663;50.864;12.096;2023-02-16T09:02:38;100253.97;;;4.11;72.46
11212;BME280;5663;50.864;12.096;2023-02-16T09:05:07;100213.88;;;3.91;72.29
11212;BME280;5663;50.864;12.096;2023-02-16T09:07:37;100258.09;;;4.27;71.67
11212;BME280;5663;50.864;12.096;2023-02-16T09:10:14;100254.56;;;4.34;71.69
11212;BME280;5663;50.864;12.096;2023-02-16T09:12:43;100254.50;;;4.43;71.80
11212;BME280;5663;50.864;12.096;2023-02-16T09:15:16;100247.53;;;4.52;71.50
11212;BME280;5663;50.864;12.096;2023-02-16T09:17:45;100248.28;;;4.58;71.50
11212;BME280;5663;50.864;12.096;2023-02-16T09:20:14;100255.03;;;4.68;71.76
11212;BME280;5663;50.864;12.096;2023-02-16T09:22:43;100253.22;;;4.77;71.66
11212;BME280;5663;50.864;12.096;2023-02-16T09:25:12;100252.25;;;4.85;71.37
11212;BME280;5663;50.864;12.096;2023-02-16T09:27:42;100252.09;;;4.94;71.60
11212;BME280;5663;50.864;12.096;2023-02-16T09:30:12;100252.84;;;5.04;71.46
11212;BME280;5663;50.864;12.096;2023-02-16T09:32:41;100256.13;;;5.14;71.34
11212;BME280;5663;50.864;12.096;2023-02-16T09:35:10;100251.78;;;5.19;70.93
11212;BME280;5663;50.864;12.096;2023-02-16T09:37:39;100257.56;;;5.33;71.02
11212;BME280;5663;50.864;12.096;2023-02-16T09:40:10;100257.41;;;5.42;70.86
11212;BME280;5663;50.864;12.096;2023-02-16T09:42:52;100247.78;;;5.54;70.79
11212;BME280;5663;50.864;12.096;2023-02-16T09:45:25;100243.34;;;5.63;70.59
11212;BME280;5663;50.864;12.096;2023-02-16T09:47:55;100249.19;;;5.73;70.44
11212;BME280;5663;50.864;12.096;2023-02-16T09:50:27;100253.25;;;5.86;70.41
11212;BME280;5663;50.864;12.096;2023-02-16T09:52:58;100245.34;;;5.99;70.19
11212;BME280;5663;50.864;12.096;2023-02-16T09:55:33;100239.97;;;6.11;69.84
11212;BME280;5663;50.864;12.096;2023-02-16T09:58:11;100244.00;;;6.24;69.79
11212;BME280;5663;50.864;12.096;2023-02-16T10:00:46;100242.97;;;6.34;70.03
11212;BME280;5663;50.864;12.096;2023-02-16T10:03:30;100217.13;;;6.34;69.54
11212;BME280;5663;50.864;12.096;2023-02-16T10:06:26;100235.56;;;6.58;69.49
11212;BME280;5663;50.864;12.096;2023-02-16T10:09:03;100240.47;;;6.70;69.37
11212;BME280;5663;50.864;12.096;2023-02-16T10:11:36;100225.69;;;6.77;69.03
11212;BME280;5663;50.864;12.096;2023-02-16T10:14:22;100233.91;;;6.96;68.83
11212;BME280;5663;50.864;12.096;2023-02-16T10:16:55;100237.06;;;7.08;68.69
11212;BME280;5663;50.864;12.096;2023-02-16T10:19:28;100229.94;;;7.18;69.12
11212;BME280;5663;50.864;12.096;2023-02-16T10:22:02;100097.94;;;6.50;68.10
11212;BME280;5663;50.864;12.096;2023-02-16T10:24:41;100216.34;;;7.46;68.13
11212;BME280;5663;50.864;12.096;2023-02-16T10:27:15;100154.00;;;7.22;67.69
11212;BME280;5663;50.864;12.096;2023-02-16T10:29:46;100217.53;;;7.68;67.37
11212;BME280;5663;50.864;12.096;2023-02-16T10:32:22;100214.66;;;7.79;67.52
11212;BME280;5663;50.864;12.096;2023-02-16T10:35:02;100210.91;;;7.90;66.63
11212;BME280;5663;50.864;12.096;2023-02-16T10:37:50;100209.75;;;8.01;66.52
11212;BME280;5663;50.864;12.096;2023-02-16T10:40:33;100222.44;;;8.11;66.70
11212;BME280;5663;50.864;12.096;2023-02-16T10:43:11;100215.44;;;8.15;66.32
11212;BME280;5663;50.864;12.096;2023-02-16T10:45:49;100216.00;;;8.26;66.27
11212;BME280;5663;50.864;12.096;2023-02-16T10:48:20;100222.69;;;8.33;65.81
11212;BME280;5663;50.864;12.096;2023-02-16T10:50:54;100222.47;;;8.43;65.47
11212;BME280;5663;50.864;12.096;2023-02-16T10:53:33;100208.44;;;8.50;65.61
11212;BME280;5663;50.864;12.096;2023-02-16T10:59:17;100207.97;;;8.65;64.86
11212;BME280;5663;50.864;12.096;2023-02-16T11:01:51;100198.28;;;8.72;64.75
11212;BME280;5663;50.864;12.096;2023-02-16T11:04:37;100204.03;;;8.81;64.18
11212;BME280;5663;50.864;12.096;2023-02-16T11:07:08;100197.81;;;8.87;64.53
11212;BME280;5663;50.864;12.096;2023-02-16T11:09:40;100194.03;;;8.97;64.08
11212;BME280;5663;50.864;12.096;2023-02-16T11:12:31;100203.19;;;9.09;63.31
11212;BME280;5663;50.864;12.096;2023-02-16T11:15:04;100195.97;;;9.19;63.43
11212;BME280;5663;50.864;12.096;2023-02-16T11:17:55;100197.41;;;9.27;63.01
11212;BME280;5663;50.864;12.096;2023-02-16T11:20:29;100190.13;;;9.38;63.24
11212;BME280;5663;50.864;12.096;2023-02-16T11:23:21;100184.44;;;9.54;62.52
11212;BME280;5663;50.864;12.096;2023-02-16T11:25:54;100181.44;;;9.66;62.25
11212;BME280;5663;50.864;12.096;2023-02-16T11:28:29;100189.63;;;9.79;62.06
11212;BME280;5663;50.864;12.096;2023-02-16T11:31:04;100169.38;;;9.88;61.96
11212;BME280;5663;50.864;12.096;2023-02-16T11:33:40;100167.13;;;10.03;62.22
11212;BME280;5663;50.864;12.096;2023-02-16T11:36:20;100139.59;;;9.97;61.83
11212;BME280;5663;50.864;12.096;2023-02-16T11:39:00;100163.59;;;10.29;61.08
11212;BME280;5663;50.864;12.096;2023-02-16T11:41:29;100162.31;;;10.41;61.14
11212;BME280;5663;50.864;12.096;2023-02-16T11:43:59;100168.03;;;10.50;60.83
11212;BME280;5663;50.864;12.096;2023-02-16T11:46:37;100164.88;;;10.64;61.02
11212;BME280;5663;50.864;12.096;2023-02-16T11:49:30;100161.69;;;10.79;60.33
11212;BME280;5663;50.864;12.096;2023-02-16T11:52:03;100154.25;;;10.92;60.36
11212;BME280;5663;50.864;12.096;2023-02-16T11:54:48;100151.88;;;11.08;59.97
11212;BME280;5663;50.864;12.096;2023-02-16T16:00:13;100068.88;;;11.22;51.72
11212;BME280;5663;50.864;12.096;2023-02-16T16:02:47;100060.53;;;11.14;51.43
11212;BME280;5663;50.864;12.096;2023-02-16T16:05:21;100043.59;;;11.04;51.07
11212;BME280;5663;50.864;12.096;2023-02-16T16:07:50;100054.00;;;11.04;51.57
11212;BME280;5663;50.864;12.096;2023-02-16T16:10:21;100040.59;;;10.93;51.71
11212;BME280;5663;50.864;12.096;2023-02-16T16:13:01;100050.34;;;10.88;51.88
11212;BME280;5663;50.864;12.096;2023-02-16T16:15:38;100039.91;;;10.67;51.96
11212;BME280;5663;50.864;12.096;2023-02-16T16:21:24;100028.66;;;10.45;51.74
11212;BME280;5663;50.864;12.096;2023-02-16T16:24:01;100030.13;;;10.30;52.15
11212;BME280;5663;50.864;12.096;2023-02-16T16:26:49;100036.19;;;10.30;52.40
11212;BME280;5663;50.864;12.096;2023-02-16T16:29:33;100020.78;;;10.02;52.97
11212;BME280;5663;50.864;12.096;2023-02-16T16:32:05;100050.09;;;10.06;53.00
11212;BME280;5663;50.864;12.096;2023-02-16T16:34:35;100053.84;;;9.97;52.96
11212;BME280;5663;50.864;12.096;2023-02-16T16:37:24;100058.47;;;9.91;53.26
11212;BME280;5663;50.864;12.096;2023-02-16T16:40:02;100058.81;;;9.81;53.83
11212;BME280;5663;50.864;12.096;2023-02-16T16:42:32;100058.34;;;9.70;53.76
11212;BME280;5663;50.864;12.096;2023-02-16T16:45:06;100064.56;;;9.66;54.15
11212;BME280;5663;50.864;12.096;2023-02-16T16:47:38;100031.63;;;9.43;54.14
11212;BME280;5663;50.864;12.096;2023-02-16T16:50:29;100082.25;;;9.55;53.56
11212;BME280;5663;50.864;12.096;2023-02-16T16:52:58;100079.69;;;9.53;54.30
11212;BME280;5663;50.864;12.096;2023-02-16T16:55:29;100094.56;;;9.50;54.37
11212;BME280;5663;50.864;12.096;2023-02-16T16:57:59;100082.59;;;9.46;54.50
11212;BME280;5663;50.864;12.096;2023-02-16T17:00:30;100079.41;;;9.37;55.11
11212;BME280;5663;50.864;12.096;2023-02-16T17:03:03;100088.19;;;9.33;55.37
11212;BME280;5663;50.864;12.096;2023-02-16T17:05:32;100077.22;;;9.25;55.70
11212;BME280;5663;50.864;12.096;2023-02-16T17:08:01;100082.53;;;9.22;56.04
11212;BME280;5663;50.864;12.096;2023-02-16T17:10:30;100080.03;;;9.19;56.45
11212;BME280;5663;50.864;12.096;2023-02-16T17:12:59;100053.91;;;8.99;56.34
11212;BME280;5663;50.864;12.096;2023-02-16T17:15:36;100087.13;;;9.14;56.63
11212;BME280;5663;50.864;12.096;2023-02-16T17:18:13;100080.34;;;9.10;56.49
11212;BME280;5663;50.864;12.096;2023-02-16T17:20:41;100102.78;;;9.11;57.15
11212;BME280;5663;50.864;12.096;2023-02-16T17:23:11;100108.00;;;9.09;56.73
11212;BME280;5663;50.864;12.096;2023-02-16T17:25:41;100104.56;;;9.09;56.62
11212;BME280;5663;50.864;12.096;2023-02-16T17:28:12;100107.16;;;9.09;57.18
11212;BME280;5663;50.864;12.096;2023-02-16T17:30:42;100070.03;;;8.82;57.32
11212;BME280;5663;50.864;12.096;2023-02-16T17:33:12;100112.50;;;9.04;57.57
11212;BME280;5663;50.864;12.096;2023-02-16T17:35:42;100112.50;;;9.04;57.30
11212;BME280;5663;50.864;12.096;2023-02-16T17:38:12;100112.59;;;9.01;57.78
11212;BME280;5663;50.864;12.096;2023-02-16T17:40:46;100118.84;;;8.96;58.21
11212;BME280;5663;50.864;12.096;2023-02-16T17:43:17;100119.78;;;8.93;58.43
11212;BME280;5663;50.864;12.096;2023-02-16T17:45:52;100112.25;;;8.85;58.71
11212;BME280;5663;50.864;12.096;2023-02-16T17:48:24;100118.19;;;8.89;58.80
11212;BME280;5663;50.864;12.096;2023-02-16T17:50:52;100119.94;;;8.88;58.66
11212;BME280;5663;50.864;12.096;2023-02-16T17:53:23;100124.34;;;8.86;58.87
11212;BME280;5663;50.864;12.096;2023-02-16T17:55:53;100134.72;;;8.86;59.03
11212;BME280;5663;50.864;12.096;2023-02-16T17:58:24;100127.81;;;8.85;59.21
11212;BME280;5663;50.864;12.096;2023-02-16T19:02:48;100121.78;;;8.57;62.84
11212;BME280;5663;50.864;12.096;2023-02-16T19:05:16;100124.44;;;8.55;63.03
11212;BME280;5663;50.864;12.096;2023-02-16T19:07:46;100127.19;;;8.51;63.41
11212;BME280;5663;50.864;12.096;2023-02-16T19:10:14;100123.59;;;8.55;64.24
11212;BME280;5663;50.864;12.096;2023-02-16T19:12:44;100123.59;;;8.55;63.84
11212;BME280;5663;50.864;12.096;2023-02-16T19:15:11;100120.94;;;8.56;64.47
11212;BME280;5663;50.864;12.096;2023-02-16T19:17:39;100087.56;;;8.46;64.28
11212;BME280;5663;50.864;12.096;2023-02-16T19:20:09;100102.00;;;8.54;64.74
11212;BME280;5663;50.864;12.096;2023-02-16T19:22:43;100102.00;;;8.54;64.86
11212;BME280;5663;50.864;12.096;2023-02-16T19:25:11;100084.19;;;8.44;64.72
11212;BME280;5663;50.864;12.096;2023-02-16T19:27:40;100105.47;;;8.53;65.23
11212;BME280;5663;50.864;12.096;2023-02-16T19:30:09;100068.13;;;8.31;64.84
11212;BME280;5663;50.864;12.096;2023-02-16T19:32:38;100079.09;;;8.41;65.45
11212;BME280;5663;50.864;12.096;2023-02-16T19:35:10;100087.56;;;8.46;65.08
11212;BME280;5663;50.864;12.096;2023-02-16T19:37:38;100088.09;;;8.57;65.11
11212;BME280;5663;50.864;12.096;2023-02-16T19:40:07;100091.59;;;8.56;65.02
11212;BME280;5663;50.864;12.096;2023-02-16T19:42:36;100080.31;;;8.57;65.05
11212;BME280;5663;50.864;12.096;2023-02-16T19:45:06;100052.38;;;8.38;65.26
11212;BME280;5663;50.864;12.096;2023-02-16T19:47:34;100081.13;;;8.59;65.02
11212;BME280;5663;50.864;12.096;2023-02-16T19:50:05;100080.31;;;8.57;65.13
11212;BME280;5663;50.864;12.096;2023-02-16T19:52:36;100075.13;;;8.57;65.15
11212;BME280;5663;50.864;12.096;2023-02-16T19:55:04;100080.31;;;8.57;65.66
11212;BME280;5663;50.864;12.096;2023-02-16T19:57:32;100077.69;;;8.58;65.29
11212;BME280;5663;50.864;12.096;2023-02-16T20:00:00;100073.34;;;8.59;65.19
11212;BME280;5663;50.864;12.096;2023-02-16T20:02:31;100080.28;;;8.58;65.26
11212;BME280;5663;50.864;12.096;2023-02-16T20:04:59;100080.22;;;8.60;65.26
11212;BME280;5663;50.864;12.096;2023-02-16T20:07:27;100071.75;;;8.55;65.70
11212;BME280;5663;50.864;12.096;2023-02-16T20:09:57;100064.75;;;8.57;65.78
11212;BME280;5663;50.864;12.096;2023-02-16T20:12:25;100069.94;;;8.57;66.12
11212;BME280;5663;50.864;12.096;2023-02-16T20:14:54;100051.09;;;8.52;65.51
11212;BME280;5663;50.864;12.096;2023-02-16T20:17:22;100061.38;;;8.55;66.08
11212;BME280;5663;50.864;12.096;2023-02-16T20:19:50;100044.16;;;8.52;65.93
11212;BME280;5663;50.864;12.096;2023-02-16T20:22:19;100054.50;;;8.54;65.78
11212;BME280;5663;50.864;12.096;2023-02-16T20:24:47;100061.28;;;8.58;66.21
11212;BME280;5663;50.864;12.096;2023-02-16T20:27:17;100060.38;;;8.59;65.65
11212;BME280;5663;50.864;12.096;2023-02-16T20:29:46;100052.63;;;8.59;65.74
11212;BME280;5663;50.864;12.096;2023-02-16T20:32:14;100059.47;;;8.60;66.36
11212;BME280;5663;50.864;12.096;2023-02-16T20:34:43;100061.16;;;8.61;66.23
11212;BME280;5663;50.864;12.096;2023-02-16T20:37:11;100063.75;;;8.61;65.87
11212;BME280;5663;50.864;12.096;2023-02-16T20:39:40;100066.34;;;8.61;66.22
11212;BME280;5663;50.864;12.096;2023-02-16T20:42:08;100040.66;;;8.55;66.08
11212;BME280;5663;50.864;12.096;2023-02-16T20:44:37;100038.97;;;8.52;66.22
11212;BME280;5663;50.864;12.096;2023-02-16T20:47:05;100050.72;;;8.64;66.15
11212;BME280;5663;50.864;12.096;2023-02-16T20:49:36;100045.53;;;8.64;66.29
11212;BME280;5663;50.864;12.096;2023-02-16T20:52:05;100036.97;;;8.62;66.16
11212;BME280;5663;50.864;12.096;2023-02-16T20:54:35;100029.97;;;8.64;66.60
11212;BME280;5663;50.864;12.096;2023-02-16T20:57:04;100026.47;;;8.65;66.58
11212;BME280;5663;50.864;12.096;2023-02-16T20:59:32;100025.59;;;8.66;66.37
11212;BME280;5663;50.864;12.096;2023-02-16T21:02:01;100035.06;;;8.67;66.34
11212;BME280;5663;50.864;12.096;2023-02-16T21:04:30;100028.97;;;8.68;66.66
11212;BME280;5663;50.864;12.096;2023-02-16T21:06:58;100033.25;;;8.69;66.28
11212;BME280;5663;50.864;12.096;2023-02-16T21:09:27;100031.56;;;8.68;66.12
11212;BME280;5663;50.864;12.096;2023-02-16T21:11:55;100020.34;;;8.68;66.57
11212;BME280;5663;50.864;12.096;2023-02-16T21:14:25;100000.94;;;8.53;66.63
11212;BME280;5663;50.864;12.096;2023-02-16T21:16:54;100008.22;;;8.68;67.15
11212;BME280;5663;50.864;12.096;2023-02-16T21:19:24;100012.41;;;8.72;66.29
11212;BME280;5663;50.864;12.096;2023-02-16T21:21:52;100008.03;;;8.74;66.27
11212;BME280;5663;50.864;12.096;2023-02-16T21:24:21;100012.31;;;8.75;66.80
11212;BME280;5663;50.864;12.096;2023-02-16T21:26:50;100003.63;;;8.76;66.28
11212;BME280;5663;50.864;12.096;2023-02-16T21:29:18;100005.28;;;8.79;66.71
11212;BME280;5663;50.864;12.096;2023-02-16T21:31:46;99992.41;;;8.76;66.78
11212;BME280;5663;50.864;12.096;2023-02-16T21:34:14;99995.75;;;8.79;66.77
11212;BME280;5663;50.864;12.096;2023-02-16T21:36:44;99985.47;;;8.76;66.85
11212;BME280;5663;50.864;12.096;2023-02-16T21:39:13;99994.00;;;8.80;66.86
11212;BME280;5663;50.864;12.096;2023-02-16T21:41:44;99991.47;;;8.78;66.30
11212;BME280;5663;50.864;12.096;2023-02-16T21:44:12;99987.13;;;8.79;66.35
11212;BME280;5663;50.864;12.096;2023-02-16T21:46:42;99980.25;;;8.78;66.87
11212;BME280;5663;50.864;12.096;2023-02-16T21:49:12;99984.47;;;8.80;66.53
11212;BME280;5663;50.864;12.096;2023-02-16T21:51:40;99980.13;;;8.81;66.74
11212;BME280;5663;50.864;12.096;2023-02-16T21:54:11;99984.47;;;8.80;66.46
11212;BME280;5663;50.864;12.096;2023-02-16T21:56:41;99984.47;;;8.80;66.59
11212;BME280;5663;50.864;12.096;2023-02-16T21:59:10;99984.47;;;8.80;66.92
11212;BME280;5663;50.864;12.096;2023-02-16T22:01:40;99983.63;;;8.80;66.80
